sensor_id;sensor_type;location;lat;lon;timestamp;P1;durP1;ratioP1;P2;durP2;ratioP2
58661;SDS011;44432;49.786;22.760;2024-03-29T17:03:03;11.30;;;5.00;;
58661;SDS011;44432;49.786;22.760;2024-03-29T17:05:34;11.40;;;5.30;;
58661;SDS011;44432;49.786;22.760;2024-03-29T17:08:04;10.30;;;4.30;;
58661;SDS011;44432;49.786;22.760;2024-03-29T17:10:35;15.70;;;8.30;;
58661;SDS011;44432;49.786;22.760;2024-03-29T17:13:05;5.50;;;2.50;;
58661;SDS011;44432;49.786;22.760;2024-03-29T17:15:35;14.30;;;3.10;;
58661;SDS011;44432;49.786;22.760;2024-03-29T17:18:05;9.80;;;2.60;;
58661;SDS011;44432;49.786;22.760;2024-03-29T17:20:36;7.60;;;2.10;;
58661;SDS011;44432;49.786;22.760;2024-03-29T17:23:06;7.90;;;2.90;;
58661;SDS011;44432;49.786;22.760;2024-03-29T17:25:36;11.50;;;3.20;;
58661;SDS011;44432;49.786;22.760;2024-03-29T17:28:07;4.90;;;1.30;;
58661;SDS011;44432;49.786;22.760;2024-03-29T17:30:38;6.80;;;1.90;;
58661;SDS011;44432;49.786;22.760;2024-03-29T17:33:08;8.70;;;2.30;;
58661;SDS011;44432;49.786;22.760;2024-03-29T17:35:38;6.60;;;2.20;;
58661;SDS011;44432;49.786;22.760;2024-03-29T17:38:09;4.60;;;1.50;;
58661;SDS011;44432;49.786;22.760;2024-03-29T17:40:39;5.10;;;1.70;;
58661;SDS011;44432;49.786;22.760;2024-03-29T17:43:10;8.70;;;2.40;;
58661;SDS011;44432;49.786;22.760;2024-03-29T17:45:40;35.00;;;12.50;;
58661;SDS011;44432;49.786;22.760;2024-03-29T17:48:10;25.60;;;12.30;;
58661;SDS011;44432;49.786;22.760;2024-03-29T17:50:41;10.30;;;3.20;;
58661;SDS011;44432;49.786;22.760;2024-03-29T17:53:11;10.10;;;2.60;;
58661;SDS011;44432;49.786;22.760;2024-03-29T17:55:41;6.00;;;2.30;;
58661;SDS011;44432;49.786;22.760;2024-03-29T17:58:11;8.00;;;3.40;;
58661;SDS011;44432;49.786;22.760;2024-03-29T18:00:42;12.70;;;3.00;;
58661;SDS011;44432;49.786;22.760;2024-03-29T18:03:16;7.40;;;3.30;;
58661;SDS011;44432;49.786;22.760;2024-03-29T18:05:46;10.40;;;4.70;;
58661;SDS011;44432;49.786;22.760;2024-03-29T18:08:16;8.60;;;3.80;;
58661;SDS011;44432;49.786;22.760;2024-03-29T18:10:48;9.70;;;3.90;;
58661;SDS011;44432;49.786;22.760;2024-03-29T18:13:18;11.70;;;3.90;;
58661;SDS011;44432;49.786;22.760;2024-03-29T18:15:49;6.00;;;2.50;;
58661;SDS011;44432;49.786;22.760;2024-03-29T18:18:19;12.10;;;3.80;;
58661;SDS011;44432;49.786;22.760;2024-03-29T18:20:49;9.30;;;3.30;;
58661;SDS011;44432;49.786;22.760;2024-03-29T18:23:20;7.60;;;2.40;;
58661;SDS011;44432;49.786;22.760;2024-03-29T18:25:50;12.90;;;4.30;;
58661;SDS011;44432;49.786;22.760;2024-03-29T18:28:20;11.40;;;4.40;;
58661;SDS011;44432;49.786;22.760;2024-03-29T18:30:53;9.80;;;4.20;;
58661;SDS011;44432;49.786;22.760;2024-03-29T18:33:23;10.30;;;3.90;;
58661;SDS011;44432;49.786;22.760;2024-03-29T18:35:53;14.00;;;6.00;;
58661;SDS011;44432;49.786;22.760;2024-03-29T18:38:26;14.40;;;3.90;;
58661;SDS011;44432;49.786;22.760;2024-03-29T18:41:00;9.60;;;4.30;;
58661;SDS011;44432;49.786;22.760;2024-03-29T18:43:31;9.30;;;4.00;;
58661;SDS011;44432;49.786;22.760;2024-03-29T18:46:05;11.80;;;4.80;;
58661;SDS011;44432;49.786;22.760;2024-03-29T18:48:35;10.20;;;4.50;;
58661;SDS011;44432;49.786;22.760;2024-03-29T18:51:06;11.30;;;5.00;;
58661;SDS011;44432;49.786;22.760;2024-03-29T18:53:36;9.10;;;5.00;;
58661;SDS011;44432;49.786;22.760;2024-03-29T18:56:09;11.20;;;6.40;;
58661;SDS011;44432;49.786;22.760;2024-03-29T18:58:39;18.90;;;9.00;;
58661;SDS011;44432;49.786;22.760;2024-03-29T19:01:09;18.90;;;10.70;;
58661;SDS011;44432;49.786;22.760;2024-03-29T19:03:40;14.60;;;7.50;;
58661;SDS011;44432;49.786;22.760;2024-03-29T19:06:10;20.10;;;10.00;;
58661;SDS011;44432;49.786;22.760;2024-03-29T19:11:12;11.90;;;4.50;;
58661;SDS011;44432;49.786;22.760;2024-03-29T19:13:51;15.30;;;5.60;;
58661;SDS011;44432;49.786;22.760;2024-03-29T19:16:23;19.00;;;6.10;;
58661;SDS011;44432;49.786;22.760;2024-03-29T19:18:53;14.50;;;4.50;;
58661;SDS011;44432;49.786;22.760;2024-03-29T19:21:24;12.90;;;4.80;;
58661;SDS011;44432;49.786;22.760;2024-03-29T19:23:54;12.90;;;4.90;;
58661;SDS011;44432;49.786;22.760;2024-03-29T19:26:25;28.30;;;11.90;;
58661;SDS011;44432;49.786;22.760;2024-03-29T19:28:59;26.30;;;14.00;;
58661;SDS011;44432;49.786;22.760;2024-03-29T19:31:30;27.90;;;12.40;;
58661;SDS011;44432;49.786;22.760;2024-03-29T19:34:00;33.80;;;19.50;;
58661;SDS011;44432;49.786;22.760;2024-03-29T19:36:30;34.20;;;19.20;;
58661;SDS011;44432;49.786;22.760;2024-03-29T19:39:00;24.00;;;14.10;;
58661;SDS011;44432;49.786;22.760;2024-03-29T19:41:32;25.90;;;14.50;;
58661;SDS011;44432;49.786;22.760;2024-03-29T19:44:02;29.50;;;15.90;;
58661;SDS011;44432;49.786;22.760;2024-03-29T19:46:33;30.50;;;14.10;;
58661;SDS011;44432;49.786;22.760;2024-03-29T19:49:04;29.00;;;13.90;;
58661;SDS011;44432;49.786;22.760;2024-03-29T19:51:34;24.80;;;14.80;;
58661;SDS011;44432;49.786;22.760;2024-03-29T19:54:05;28.10;;;13.60;;
58661;SDS011;44432;49.786;22.760;2024-03-29T19:56:36;25.80;;;13.60;;
58661;SDS011;44432;49.786;22.760;2024-03-29T19:59:06;31.60;;;15.30;;
58661;SDS011;44432;49.786;22.760;2024-03-29T20:01:36;33.30;;;15.40;;
58661;SDS011;44432;49.786;22.760;2024-03-29T20:04:07;31.40;;;15.40;;
58661;SDS011;44432;49.786;22.760;2024-03-29T20:06:37;33.50;;;17.70;;
58661;SDS011;44432;49.786;22.760;2024-03-29T20:09:08;33.00;;;17.00;;
58661;SDS011;44432;49.786;22.760;2024-03-29T20:11:38;28.30;;;15.80;;
58661;SDS011;44432;49.786;22.760;2024-03-29T20:14:10;27.60;;;16.00;;
58661;SDS011;44432;49.786;22.760;2024-03-29T20:16:40;28.80;;;16.40;;
58661;SDS011;44432;49.786;22.760;2024-03-29T20:19:13;27.90;;;16.70;;
58661;SDS011;44432;49.786;22.760;2024-03-29T20:21:43;35.30;;;17.50;;
58661;SDS011;44432;49.786;22.760;2024-03-29T20:24:14;39.60;;;19.00;;
58661;SDS011;44432;49.786;22.760;2024-03-29T20:26:44;35.20;;;20.60;;
58661;SDS011;44432;49.786;22.760;2024-03-29T20:29:14;38.40;;;20.70;;
58661;SDS011;44432;49.786;22.760;2024-03-29T20:31:45;37.30;;;20.50;;
58661;SDS011;44432;49.786;22.760;2024-03-29T20:34:15;36.10;;;19.00;;
58661;SDS011;44432;49.786;22.760;2024-03-29T20:36:45;40.90;;;19.80;;
58661;SDS011;44432;49.786;22.760;2024-03-29T20:39:16;38.20;;;19.80;;
58661;SDS011;44432;49.786;22.760;2024-03-29T20:41:46;38.80;;;19.40;;
58661;SDS011;44432;49.786;22.760;2024-03-29T20:44:16;43.30;;;23.00;;
58661;SDS011;44432;49.786;22.760;2024-03-29T20:46:47;53.90;;;31.70;;
58661;SDS011;44432;49.786;22.760;2024-03-29T20:49:17;38.70;;;22.30;;
58661;SDS011;44432;49.786;22.760;2024-03-29T20:51:47;33.00;;;17.70;;
58661;SDS011;44432;49.786;22.760;2024-03-29T20:54:18;32.30;;;17.60;;
58661;SDS011;44432;49.786;22.760;2024-03-29T20:56:48;42.20;;;24.10;;
58661;SDS011;44432;49.786;22.760;2024-03-29T20:59:19;37.30;;;21.20;;
58661;SDS011;44432;49.786;22.760;2024-03-29T21:01:49;37.00;;;20.30;;
58661;SDS011;44432;49.786;22.760;2024-03-29T21:04:37;41.10;;;22.30;;
58661;SDS011;44432;49.786;22.760;2024-03-29T21:07:25;40.90;;;21.20;;
58661;SDS011;44432;49.786;22.760;2024-03-29T21:09:55;46.70;;;23.50;;
58661;SDS011;44432;49.786;22.760;2024-03-29T21:12:26;44.30;;;24.10;;
58661;SDS011;44432;49.786;22.760;2024-03-29T21:14:56;40.50;;;21.50;;
58661;SDS011;44432;49.786;22.760;2024-03-29T21:17:27;44.10;;;22.60;;
58661;SDS011;44432;49.786;22.760;2024-03-29T21:19:58;41.70;;;22.30;;
58661;SDS011;44432;49.786;22.760;2024-03-29T21:22:28;43.20;;;22.40;;
58661;SDS011;44432;49.786;22.760;2024-03-29T21:24:58;39.10;;;22.40;;
58661;SDS011;44432;49.786;22.760;2024-03-29T21:27:28;48.40;;;24.50;;
58661;SDS011;44432;49.786;22.760;2024-03-29T21:29:59;43.50;;;22.40;;
58661;SDS011;44432;49.786;22.760;2024-03-29T21:32:30;44.60;;;23.70;;
58661;SDS011;44432;49.786;22.760;2024-03-29T21:35:01;47.80;;;25.20;;
58661;SDS011;44432;49.786;22.760;2024-03-29T21:37:32;47.20;;;25.90;;
58661;SDS011;44432;49.786;22.760;2024-03-29T21:40:03;45.90;;;24.80;;
58661;SDS011;44432;49.786;22.760;2024-03-29T21:42:34;41.70;;;24.50;;
58661;SDS011;44432;49.786;22.760;2024-03-29T21:45:05;42.90;;;22.20;;
58661;SDS011;44432;49.786;22.760;2024-03-29T21:47:36;41.60;;;22.00;;
58661;SDS011;44432;49.786;22.760;2024-03-29T21:50:06;42.30;;;23.70;;
58661;SDS011;44432;49.786;22.760;2024-03-29T21:52:37;42.70;;;21.60;;
58661;SDS011;44432;49.786;22.760;2024-03-29T21:55:08;40.10;;;21.00;;
58661;SDS011;44432;49.786;22.760;2024-03-29T21:57:39;39.70;;;22.40;;
58661;SDS011;44432;49.786;22.760;2024-03-29T22:00:10;38.30;;;21.80;;
58661;SDS011;44432;49.786;22.760;2024-03-29T22:02:43;34.10;;;19.10;;
58661;SDS011;44432;49.786;22.760;2024-03-29T22:05:13;39.00;;;21.00;;
58661;SDS011;44432;49.786;22.760;2024-03-29T22:07:43;33.40;;;18.80;;
58661;SDS011;44432;49.786;22.760;2024-03-29T22:10:14;27.80;;;15.30;;
58661;SDS011;44432;49.786;22.760;2024-03-29T22:12:44;31.10;;;15.40;;
58661;SDS011;44432;49.786;22.760;2024-03-29T22:15:14;29.40;;;14.20;;
58661;SDS011;44432;49.786;22.760;2024-03-29T22:17:45;29.20;;;13.10;;
58661;SDS011;44432;49.786;22.760;2024-03-29T22:20:15;27.00;;;12.90;;
58661;SDS011;44432;49.786;22.760;2024-03-29T22:22:46;27.30;;;13.40;;
58661;SDS011;44432;49.786;22.760;2024-03-29T22:25:16;21.40;;;11.90;;
58661;SDS011;44432;49.786;22.760;2024-03-29T22:27:47;26.90;;;13.60;;
58661;SDS011;44432;49.786;22.760;2024-03-29T22:30:17;29.30;;;13.80;;
58661;SDS011;44432;49.786;22.760;2024-03-29T22:32:47;28.30;;;14.00;;
58661;SDS011;44432;49.786;22.760;2024-03-29T22:35:18;30.70;;;14.20;;
58661;SDS011;44432;49.786;22.760;2024-03-29T22:37:48;27.90;;;12.90;;
58661;SDS011;44432;49.786;22.760;2024-03-29T22:40:19;24.10;;;11.60;;
58661;SDS011;44432;49.786;22.760;2024-03-29T22:42:49;23.80;;;12.90;;
58661;SDS011;44432;49.786;22.760;2024-03-29T22:45:19;26.90;;;13.20;;
58661;SDS011;44432;49.786;22.760;2024-03-29T22:47:49;30.20;;;13.50;;
58661;SDS011;44432;49.786;22.760;2024-03-29T22:50:20;27.90;;;13.20;;
58661;SDS011;44432;49.786;22.760;2024-03-29T22:52:50;28.80;;;12.70;;
58661;SDS011;44432;49.786;22.760;2024-03-29T22:55:21;28.00;;;12.70;;
58661;SDS011;44432;49.786;22.760;2024-03-29T22:57:51;24.00;;;11.90;;
58661;SDS011;44432;49.786;22.760;2024-03-29T23:00:21;29.80;;;11.70;;
58661;SDS011;44432;49.786;22.760;2024-03-29T23:02:52;28.40;;;12.80;;
58661;SDS011;44432;49.786;22.760;2024-03-29T23:05:24;25.20;;;11.80;;
58661;SDS011;44432;49.786;22.760;2024-03-29T23:07:56;26.30;;;12.70;;
58661;SDS011;44432;49.786;22.760;2024-03-29T23:10:28;28.80;;;12.50;;
58661;SDS011;44432;49.786;22.760;2024-03-29T23:12:58;24.50;;;11.80;;
58661;SDS011;44432;49.786;22.760;2024-03-29T23:15:29;23.20;;;10.50;;
58661;SDS011;44432;49.786;22.760;2024-03-29T23:18:00;18.80;;;9.00;;
58661;SDS011;44432;49.786;22.760;2024-03-29T23:20:30;16.90;;;7.80;;
58661;SDS011;44432;49.786;22.760;2024-03-29T23:23:01;19.70;;;8.60;;
58661;SDS011;44432;49.786;22.760;2024-03-29T23:25:32;17.90;;;7.40;;
58661;SDS011;44432;49.786;22.760;2024-03-29T23:28:03;21.00;;;7.40;;
58661;SDS011;44432;49.786;22.760;2024-03-29T23:30:36;20.10;;;7.30;;
58661;SDS011;44432;49.786;22.760;2024-03-29T23:33:06;20.40;;;8.00;;
58661;SDS011;44432;49.786;22.760;2024-03-29T23:37:05;19.30;;;8.20;;
58661;SDS011;44432;49.786;22.760;2024-03-29T23:39:35;16.00;;;7.40;;
58661;SDS011;44432;49.786;22.760;2024-03-29T23:42:06;16.80;;;7.50;;
58661;SDS011;44432;49.786;22.760;2024-03-29T23:44:36;19.10;;;7.70;;
58661;SDS011;44432;49.786;22.760;2024-03-29T23:47:06;20.40;;;7.10;;
58661;SDS011;44432;49.786;22.760;2024-03-29T23:49:37;17.50;;;7.10;;
58661;SDS011;44432;49.786;22.760;2024-03-29T23:52:07;14.10;;;7.00;;
58661;SDS011;44432;49.786;22.760;2024-03-29T23:54:37;14.60;;;7.20;;
58661;SDS011;44432;49.786;22.760;2024-03-29T23:57:08;16.10;;;7.20;;
58661;SDS011;44432;49.786;22.760;2024-03-29T23:59:38;17.40;;;8.00;;
